sensor_id;sensor_type;location;lat;lon;timestamp;P1;durP1;ratioP1;P2;durP2;ratioP2
66478;SDS011;53294;47.912;13.526;2024-02-28T00:01:50;6.32;;;2.60;;
66478;SDS011;53294;47.912;13.526;2024-02-28T00:04:18;9.52;;;3.38;;
66478;SDS011;53294;47.912;13.526;2024-02-28T00:06:45;7.68;;;3.72;;
66478;SDS011;53294;47.912;13.526;2024-02-28T00:09:15;8.88;;;3.70;;
66478;SDS011;53294;47.912;13.526;2024-02-28T00:11:42;8.10;;;3.50;;
66478;SDS011;53294;47.912;13.526;2024-02-28T00:14:11;8.70;;;3.17;;
66478;SDS011;53294;47.912;13.526;2024-02-28T00:16:42;8.73;;;3.35;;
66478;SDS011;53294;47.912;13.526;2024-02-28T00:19:12;6.45;;;3.50;;
66478;SDS011;53294;47.912;13.526;2024-02-28T00:21:39;10.60;;;3.50;;
66478;SDS011;53294;47.912;13.526;2024-02-28T00:24:08;5.68;;;2.30;;
66478;SDS011;53294;47.912;13.526;2024-02-28T00:26:35;10.13;;;3.90;;
66478;SDS011;53294;47.912;13.526;2024-02-28T00:29:02;9.65;;;4.75;;
66478;SDS011;53294;47.912;13.526;2024-02-28T00:31:29;7.93;;;3.42;;
66478;SDS011;53294;47.912;13.526;2024-02-28T00:33:56;11.10;;;4.65;;
66478;SDS011;53294;47.912;13.526;2024-02-28T00:36:23;8.88;;;3.83;;
66478;SDS011;53294;47.912;13.526;2024-02-28T00:38:49;7.78;;;3.15;;
66478;SDS011;53294;47.912;13.526;2024-02-28T00:41:16;10.65;;;3.80;;
66478;SDS011;53294;47.912;13.526;2024-02-28T00:43:43;7.60;;;3.63;;
66478;SDS011;53294;47.912;13.526;2024-02-28T00:46:10;11.63;;;3.50;;
66478;SDS011;53294;47.912;13.526;2024-02-28T00:48:40;4.93;;;2.50;;
66478;SDS011;53294;47.912;13.526;2024-02-28T00:51:07;7.05;;;3.55;;
66478;SDS011;53294;47.912;13.526;2024-02-28T00:53:36;5.57;;;2.95;;
66478;SDS011;53294;47.912;13.526;2024-02-28T00:56:03;7.22;;;2.85;;
66478;SDS011;53294;47.912;13.526;2024-02-28T00:58:30;10.75;;;4.40;;
66478;SDS011;53294;47.912;13.526;2024-02-28T01:00:57;4.38;;;2.72;;
66478;SDS011;53294;47.912;13.526;2024-02-28T01:03:24;6.70;;;2.88;;
66478;SDS011;53294;47.912;13.526;2024-02-28T01:05:51;6.15;;;2.95;;
66478;SDS011;53294;47.912;13.526;2024-02-28T01:08:18;6.82;;;2.80;;
66478;SDS011;53294;47.912;13.526;2024-02-28T01:10:45;6.13;;;2.88;;
66478;SDS011;53294;47.912;13.526;2024-02-28T01:13:12;7.28;;;3.42;;
66478;SDS011;53294;47.912;13.526;2024-02-28T01:15:40;6.20;;;3.35;;
66478;SDS011;53294;47.912;13.526;2024-02-28T01:18:10;5.93;;;2.83;;
66478;SDS011;53294;47.912;13.526;2024-02-28T01:20:37;10.85;;;4.07;;
66478;SDS011;53294;47.912;13.526;2024-02-28T01:23:04;7.25;;;2.60;;
66478;SDS011;53294;47.912;13.526;2024-02-28T01:25:31;6.07;;;3.40;;
66478;SDS011;53294;47.912;13.526;2024-02-28T01:27:58;6.90;;;3.63;;
66478;SDS011;53294;47.912;13.526;2024-02-28T01:30:25;7.20;;;2.95;;
66478;SDS011;53294;47.912;13.526;2024-02-28T01:32:52;4.55;;;2.63;;
66478;SDS011;53294;47.912;13.526;2024-02-28T01:35:19;10.40;;;3.75;;
66478;SDS011;53294;47.912;13.526;2024-02-28T01:37:46;3.78;;;2.42;;
66478;SDS011;53294;47.912;13.526;2024-02-28T01:40:13;9.38;;;3.42;;
66478;SDS011;53294;47.912;13.526;2024-02-28T01:42:40;10.85;;;4.15;;
66478;SDS011;53294;47.912;13.526;2024-02-28T01:45:07;6.85;;;3.20;;
66478;SDS011;53294;47.912;13.526;2024-02-28T01:47:39;6.50;;;3.13;;
66478;SDS011;53294;47.912;13.526;2024-02-28T01:50:08;8.82;;;4.00;;
66478;SDS011;53294;47.912;13.526;2024-02-28T01:52:39;4.68;;;2.88;;
66478;SDS011;53294;47.912;13.526;2024-02-28T01:55:07;6.57;;;3.40;;
66478;SDS011;53294;47.912;13.526;2024-02-28T01:57:35;12.48;;;3.97;;
66478;SDS011;53294;47.912;13.526;2024-02-28T02:00:04;8.10;;;2.88;;
66478;SDS011;53294;47.912;13.526;2024-02-28T02:02:34;12.35;;;3.72;;
66478;SDS011;53294;47.912;13.526;2024-02-28T02:05:01;8.35;;;3.75;;
66478;SDS011;53294;47.912;13.526;2024-02-28T02:07:28;10.25;;;4.65;;
66478;SDS011;53294;47.912;13.526;2024-02-28T02:09:55;6.95;;;2.90;;
66478;SDS011;53294;47.912;13.526;2024-02-28T02:12:22;2.70;;;2.28;;
66478;SDS011;53294;47.912;13.526;2024-02-28T02:14:49;5.25;;;3.25;;
66478;SDS011;53294;47.912;13.526;2024-02-28T02:17:16;4.47;;;3.35;;
66478;SDS011;53294;47.912;13.526;2024-02-28T02:19:43;6.30;;;2.65;;
66478;SDS011;53294;47.912;13.526;2024-02-28T02:22:10;6.05;;;2.63;;
66478;SDS011;53294;47.912;13.526;2024-02-28T02:24:40;8.05;;;4.45;;
66478;SDS011;53294;47.912;13.526;2024-02-28T02:27:07;7.75;;;4.07;;
66478;SDS011;53294;47.912;13.526;2024-02-28T02:29:34;7.50;;;3.17;;
66478;SDS011;53294;47.912;13.526;2024-02-28T02:32:01;8.40;;;3.00;;
66478;SDS011;53294;47.912;13.526;2024-02-28T02:34:28;6.97;;;2.92;;
66478;SDS011;53294;47.912;13.526;2024-02-28T02:36:55;5.78;;;2.03;;
66478;SDS011;53294;47.912;13.526;2024-02-28T02:39:22;6.95;;;3.38;;
66478;SDS011;53294;47.912;13.526;2024-02-28T02:41:49;8.13;;;3.08;;
66478;SDS011;53294;47.912;13.526;2024-02-28T02:44:16;7.78;;;2.80;;
66478;SDS011;53294;47.912;13.526;2024-02-28T02:46:42;7.75;;;3.30;;
66478;SDS011;53294;47.912;13.526;2024-02-28T02:49:09;11.23;;;3.28;;
66478;SDS011;53294;47.912;13.526;2024-02-28T02:51:36;8.15;;;4.75;;
66478;SDS011;53294;47.912;13.526;2024-02-28T02:54:03;8.30;;;3.47;;
66478;SDS011;53294;47.912;13.526;2024-02-28T02:56:30;6.22;;;2.92;;
66478;SDS011;53294;47.912;13.526;2024-02-28T02:58:57;7.65;;;3.33;;
66478;SDS011;53294;47.912;13.526;2024-02-28T03:01:23;3.42;;;1.90;;
66478;SDS011;53294;47.912;13.526;2024-02-28T03:03:50;4.88;;;2.15;;
66478;SDS011;53294;47.912;13.526;2024-02-28T03:11:11;7.43;;;1.92;;
66478;SDS011;53294;47.912;13.526;2024-02-28T03:13:38;4.78;;;3.20;;
66478;SDS011;53294;47.912;13.526;2024-02-28T03:16:04;12.15;;;3.03;;
66478;SDS011;53294;47.912;13.526;2024-02-28T03:18:31;7.28;;;2.85;;
66478;SDS011;53294;47.912;13.526;2024-02-28T03:20:58;7.13;;;2.53;;
66478;SDS011;53294;47.912;13.526;2024-02-28T03:23:25;8.57;;;3.03;;
66478;SDS011;53294;47.912;13.526;2024-02-28T03:25:52;10.52;;;3.10;;
66478;SDS011;53294;47.912;13.526;2024-02-28T03:28:18;7.00;;;3.13;;
66478;SDS011;53294;47.912;13.526;2024-02-28T03:30:45;6.47;;;3.28;;
66478;SDS011;53294;47.912;13.526;2024-02-28T03:33:12;6.53;;;3.00;;
66478;SDS011;53294;47.912;13.526;2024-02-28T03:35:39;7.68;;;4.43;;
66478;SDS011;53294;47.912;13.526;2024-02-28T03:38:05;3.63;;;2.67;;
66478;SDS011;53294;47.912;13.526;2024-02-28T03:40:32;8.82;;;4.10;;
66478;SDS011;53294;47.912;13.526;2024-02-28T03:42:59;6.80;;;2.80;;
66478;SDS011;53294;47.912;13.526;2024-02-28T03:47:56;6.93;;;4.45;;
66478;SDS011;53294;47.912;13.526;2024-02-28T03:50:22;6.93;;;3.25;;
66478;SDS011;53294;47.912;13.526;2024-02-28T03:52:49;6.43;;;3.45;;
66478;SDS011;53294;47.912;13.526;2024-02-28T03:55:17;10.90;;;3.20;;
66478;SDS011;53294;47.912;13.526;2024-02-28T03:57:46;6.28;;;3.22;;
66478;SDS011;53294;47.912;13.526;2024-02-28T04:00:14;5.45;;;3.88;;
66478;SDS011;53294;47.912;13.526;2024-02-28T04:02:41;7.90;;;4.25;;
66478;SDS011;53294;47.912;13.526;2024-02-28T04:05:07;7.60;;;2.70;;
66478;SDS011;53294;47.912;13.526;2024-02-28T04:07:34;10.10;;;3.28;;
66478;SDS011;53294;47.912;13.526;2024-02-28T04:10:01;9.18;;;3.20;;
66478;SDS011;53294;47.912;13.526;2024-02-28T04:12:31;5.28;;;2.60;;
66478;SDS011;53294;47.912;13.526;2024-02-28T04:14:57;10.27;;;4.35;;
66478;SDS011;53294;47.912;13.526;2024-02-28T04:17:24;6.72;;;2.60;;
66478;SDS011;53294;47.912;13.526;2024-02-28T04:19:51;9.63;;;3.15;;
66478;SDS011;53294;47.912;13.526;2024-02-28T04:22:18;8.45;;;4.65;;
66478;SDS011;53294;47.912;13.526;2024-02-28T04:24:45;7.32;;;3.50;;
66478;SDS011;53294;47.912;13.526;2024-02-28T04:27:12;9.70;;;3.42;;
66478;SDS011;53294;47.912;13.526;2024-02-28T04:29:39;4.93;;;2.58;;
66478;SDS011;53294;47.912;13.526;2024-02-28T04:32:05;5.72;;;3.28;;
66478;SDS011;53294;47.912;13.526;2024-02-28T04:34:32;5.25;;;2.78;;
66478;SDS011;53294;47.912;13.526;2024-02-28T04:36:59;8.57;;;3.35;;
66478;SDS011;53294;47.912;13.526;2024-02-28T04:39:26;4.20;;;2.83;;
66478;SDS011;53294;47.912;13.526;2024-02-28T04:41:52;5.88;;;2.85;;
66478;SDS011;53294;47.912;13.526;2024-02-28T04:44:19;12.82;;;3.80;;
66478;SDS011;53294;47.912;13.526;2024-02-28T04:46:46;7.15;;;3.00;;
66478;SDS011;53294;47.912;13.526;2024-02-28T04:49:12;4.32;;;2.40;;
66478;SDS011;53294;47.912;13.526;2024-02-28T04:51:39;8.27;;;3.63;;
66478;SDS011;53294;47.912;13.526;2024-02-28T04:54:06;7.03;;;3.33;;
66478;SDS011;53294;47.912;13.526;2024-02-28T04:56:32;5.70;;;3.33;;
66478;SDS011;53294;47.912;13.526;2024-02-28T04:58:59;9.23;;;3.38;;
66478;SDS011;53294;47.912;13.526;2024-02-28T05:01:26;8.02;;;3.08;;
66478;SDS011;53294;47.912;13.526;2024-02-28T05:03:54;8.00;;;3.00;;
66478;SDS011;53294;47.912;13.526;2024-02-28T05:06:21;6.57;;;3.65;;
66478;SDS011;53294;47.912;13.526;2024-02-28T05:08:48;12.68;;;3.80;;
66478;SDS011;53294;47.912;13.526;2024-02-28T05:11:15;10.13;;;3.72;;
66478;SDS011;53294;47.912;13.526;2024-02-28T05:13:42;8.80;;;4.55;;
66478;SDS011;53294;47.912;13.526;2024-02-28T05:16:12;12.05;;;4.15;;
66478;SDS011;53294;47.912;13.526;2024-02-28T05:18:40;9.95;;;4.07;;
66478;SDS011;53294;47.912;13.526;2024-02-28T05:21:06;12.68;;;4.38;;
66478;SDS011;53294;47.912;13.526;2024-02-28T05:23:33;9.35;;;3.50;;
66478;SDS011;53294;47.912;13.526;2024-02-28T05:26:00;7.07;;;3.13;;
66478;SDS011;53294;47.912;13.526;2024-02-28T05:28:30;6.85;;;3.45;;
66478;SDS011;53294;47.912;13.526;2024-02-28T05:30:59;8.93;;;4.35;;
66478;SDS011;53294;47.912;13.526;2024-02-28T05:33:26;8.80;;;3.65;;
66478;SDS011;53294;47.912;13.526;2024-02-28T05:35:53;7.78;;;3.47;;
66478;SDS011;53294;47.912;13.526;2024-02-28T05:38:20;11.23;;;3.92;;
66478;SDS011;53294;47.912;13.526;2024-02-28T05:40:47;7.95;;;3.65;;
66478;SDS011;53294;47.912;13.526;2024-02-28T05:43:13;7.65;;;3.95;;
66478;SDS011;53294;47.912;13.526;2024-02-28T05:45:40;9.68;;;3.58;;
66478;SDS011;53294;47.912;13.526;2024-02-28T05:48:07;6.60;;;3.22;;
66478;SDS011;53294;47.912;13.526;2024-02-28T05:50:34;6.63;;;3.92;;
66478;SDS011;53294;47.912;13.526;2024-02-28T05:53:00;10.48;;;4.20;;
66478;SDS011;53294;47.912;13.526;2024-02-28T05:55:27;10.02;;;3.60;;
66478;SDS011;53294;47.912;13.526;2024-02-28T05:57:54;11.95;;;3.72;;
66478;SDS011;53294;47.912;13.526;2024-02-28T06:00:21;10.05;;;4.35;;
66478;SDS011;53294;47.912;13.526;2024-02-28T06:02:48;9.35;;;3.65;;
66478;SDS011;53294;47.912;13.526;2024-02-28T06:05:14;7.57;;;3.50;;
66478;SDS011;53294;47.912;13.526;2024-02-28T06:07:41;6.43;;;3.42;;
66478;SDS011;53294;47.912;13.526;2024-02-28T06:10:08;7.28;;;3.47;;
66478;SDS011;53294;47.912;13.526;2024-02-28T06:12:36;9.00;;;3.33;;
66478;SDS011;53294;47.912;13.526;2024-02-28T06:15:04;7.72;;;3.45;;
66478;SDS011;53294;47.912;13.526;2024-02-28T06:17:31;7.72;;;3.30;;
66478;SDS011;53294;47.912;13.526;2024-02-28T06:19:58;7.63;;;3.45;;
66478;SDS011;53294;47.912;13.526;2024-02-28T06:22:24;7.45;;;3.65;;
66478;SDS011;53294;47.912;13.526;2024-02-28T06:24:51;6.68;;;3.10;;
66478;SDS011;53294;47.912;13.526;2024-02-28T06:27:18;6.22;;;3.22;;
66478;SDS011;53294;47.912;13.526;2024-02-28T06:29:45;9.82;;;3.10;;
66478;SDS011;53294;47.912;13.526;2024-02-28T06:32:11;8.15;;;3.30;;
66478;SDS011;53294;47.912;13.526;2024-02-28T06:34:38;9.25;;;3.35;;
66478;SDS011;53294;47.912;13.526;2024-02-28T06:37:05;6.93;;;3.13;;
66478;SDS011;53294;47.912;13.526;2024-02-28T06:39:31;11.57;;;3.97;;
66478;SDS011;53294;47.912;13.526;2024-02-28T06:41:58;9.18;;;3.30;;
66478;SDS011;53294;47.912;13.526;2024-02-28T06:44:25;6.50;;;3.05;;
66478;SDS011;53294;47.912;13.526;2024-02-28T06:46:52;7.72;;;3.80;;
66478;SDS011;53294;47.912;13.526;2024-02-28T06:49:19;6.93;;;3.53;;
66478;SDS011;53294;47.912;13.526;2024-02-28T06:51:45;7.15;;;3.90;;
66478;SDS011;53294;47.912;13.526;2024-02-28T06:54:12;6.88;;;3.38;;
66478;SDS011;53294;47.912;13.526;2024-02-28T06:56:39;9.95;;;3.70;;
66478;SDS011;53294;47.912;13.526;2024-02-28T06:59:06;7.10;;;3.95;;
66478;SDS011;53294;47.912;13.526;2024-02-28T07:01:33;12.20;;;4.32;;
66478;SDS011;53294;47.912;13.526;2024-02-28T07:04:00;7.38;;;3.95;;
66478;SDS011;53294;47.912;13.526;2024-02-28T07:06:27;13.05;;;4.80;;
66478;SDS011;53294;47.912;13.526;2024-02-28T07:08:54;8.55;;;4.45;;
66478;SDS011;53294;47.912;13.526;2024-02-28T07:11:21;10.93;;;4.18;;
66478;SDS011;53294;47.912;13.526;2024-02-28T07:13:48;7.90;;;3.25;;
66478;SDS011;53294;47.912;13.526;2024-02-28T07:16:14;6.15;;;3.15;;
66478;SDS011;53294;47.912;13.526;2024-02-28T07:18:41;9.38;;;4.43;;
66478;SDS011;53294;47.912;13.526;2024-02-28T07:21:08;6.90;;;3.22;;
66478;SDS011;53294;47.912;13.526;2024-02-28T07:23:38;10.63;;;4.40;;
66478;SDS011;53294;47.912;13.526;2024-02-28T07:26:07;10.30;;;3.67;;
66478;SDS011;53294;47.912;13.526;2024-02-28T07:28:44;8.93;;;3.92;;
66478;SDS011;53294;47.912;13.526;2024-02-28T07:31:16;7.25;;;2.75;;
66478;SDS011;53294;47.912;13.526;2024-02-28T07:36:10;9.13;;;3.30;;
66478;SDS011;53294;47.912;13.526;2024-02-28T07:38:37;7.95;;;4.18;;
66478;SDS011;53294;47.912;13.526;2024-02-28T07:41:03;10.05;;;4.25;;
66478;SDS011;53294;47.912;13.526;2024-02-28T07:43:31;15.30;;;5.50;;
66478;SDS011;53294;47.912;13.526;2024-02-28T07:46:09;14.27;;;5.40;;
66478;SDS011;53294;47.912;13.526;2024-02-28T07:48:38;15.13;;;5.53;;
66478;SDS011;53294;47.912;13.526;2024-02-28T07:51:05;13.90;;;5.38;;
66478;SDS011;53294;47.912;13.526;2024-02-28T07:53:32;9.75;;;3.85;;
66478;SDS011;53294;47.912;13.526;2024-02-28T07:55:59;7.78;;;3.40;;
66478;SDS011;53294;47.912;13.526;2024-02-28T07:58:26;9.00;;;4.43;;
66478;SDS011;53294;47.912;13.526;2024-02-28T08:00:53;7.32;;;3.97;;
66478;SDS011;53294;47.912;13.526;2024-02-28T08:03:20;10.93;;;4.88;;
66478;SDS011;53294;47.912;13.526;2024-02-28T08:05:47;11.40;;;5.03;;
66478;SDS011;53294;47.912;13.526;2024-02-28T08:08:15;9.73;;;4.32;;
66478;SDS011;53294;47.912;13.526;2024-02-28T08:10:41;11.90;;;4.38;;
66478;SDS011;53294;47.912;13.526;2024-02-28T08:13:08;10.55;;;5.13;;
66478;SDS011;53294;47.912;13.526;2024-02-28T08:15:35;10.45;;;4.22;;
66478;SDS011;53294;47.912;13.526;2024-02-28T08:18:02;11.07;;;5.38;;
66478;SDS011;53294;47.912;13.526;2024-02-28T08:20:29;9.13;;;3.53;;
66478;SDS011;53294;47.912;13.526;2024-02-28T08:22:56;12.05;;;3.83;;
66478;SDS011;53294;47.912;13.526;2024-02-28T08:25:24;10.00;;;4.65;;
66478;SDS011;53294;47.912;13.526;2024-02-28T08:27:51;8.50;;;4.53;;
66478;SDS011;53294;47.912;13.526;2024-02-28T08:30:18;10.80;;;5.00;;
66478;SDS011;53294;47.912;13.526;2024-02-28T08:32:44;9.60;;;4.22;;
66478;SDS011;53294;47.912;13.526;2024-02-28T08:35:11;9.65;;;3.65;;
66478;SDS011;53294;47.912;13.526;2024-02-28T08:37:38;9.52;;;4.28;;
66478;SDS011;53294;47.912;13.526;2024-02-28T08:40:06;13.95;;;4.75;;
66478;SDS011;53294;47.912;13.526;2024-02-28T08:42:33;10.80;;;4.47;;
66478;SDS011;53294;47.912;13.526;2024-02-28T08:45:00;13.23;;;5.40;;
66478;SDS011;53294;47.912;13.526;2024-02-28T08:47:27;9.70;;;4.32;;
66478;SDS011;53294;47.912;13.526;2024-02-28T08:49:54;13.35;;;4.85;;
66478;SDS011;53294;47.912;13.526;2024-02-28T08:52:21;13.55;;;5.57;;
66478;SDS011;53294;47.912;13.526;2024-02-28T08:57:15;16.60;;;4.65;;
66478;SDS011;53294;47.912;13.526;2024-02-28T08:59:42;9.82;;;4.30;;
66478;SDS011;53294;47.912;13.526;2024-02-28T09:02:09;9.13;;;3.75;;
66478;SDS011;53294;47.912;13.526;2024-02-28T09:04:37;8.93;;;3.85;;
66478;SDS011;53294;47.912;13.526;2024-02-28T09:07:04;11.45;;;4.30;;
66478;SDS011;53294;47.912;13.526;2024-02-28T09:09:31;11.82;;;5.00;;
66478;SDS011;53294;47.912;13.526;2024-02-28T09:12:00;8.45;;;3.78;;
66478;SDS011;53294;47.912;13.526;2024-02-28T09:14:29;12.57;;;4.25;;
66478;SDS011;53294;47.912;13.526;2024-02-28T09:16:56;13.63;;;4.55;;
66478;SDS011;53294;47.912;13.526;2024-02-28T09:19:30;15.95;;;4.75;;
66478;SDS011;53294;47.912;13.526;2024-02-28T09:22:00;11.13;;;4.28;;
66478;SDS011;53294;47.912;13.526;2024-02-28T09:24:27;13.73;;;5.20;;
66478;SDS011;53294;47.912;13.526;2024-02-28T09:26:54;7.30;;;3.33;;
66478;SDS011;53294;47.912;13.526;2024-02-28T09:29:20;8.38;;;3.72;;
66478;SDS011;53294;47.912;13.526;2024-02-28T09:31:47;11.05;;;4.32;;
66478;SDS011;53294;47.912;13.526;2024-02-28T09:34:14;8.05;;;3.67;;
66478;SDS011;53294;47.912;13.526;2024-02-28T09:36:44;12.90;;;5.20;;
66478;SDS011;53294;47.912;13.526;2024-02-28T09:39:16;10.52;;;3.67;;
66478;SDS011;53294;47.912;13.526;2024-02-28T09:41:43;8.63;;;3.88;;
66478;SDS011;53294;47.912;13.526;2024-02-28T09:44:15;11.55;;;4.50;;
66478;SDS011;53294;47.912;13.526;2024-02-28T09:46:43;9.80;;;3.92;;
66478;SDS011;53294;47.912;13.526;2024-02-28T09:49:09;11.57;;;5.00;;
66478;SDS011;53294;47.912;13.526;2024-02-28T09:51:37;12.52;;;4.35;;
66478;SDS011;53294;47.912;13.526;2024-02-28T09:54:04;9.73;;;4.85;;
66478;SDS011;53294;47.912;13.526;2024-02-28T09:56:31;9.20;;;5.07;;
66478;SDS011;53294;47.912;13.526;2024-02-28T09:58:59;8.68;;;3.45;;
66478;SDS011;53294;47.912;13.526;2024-02-28T10:01:29;10.57;;;4.35;;
66478;SDS011;53294;47.912;13.526;2024-02-28T10:03:57;6.63;;;2.70;;
66478;SDS011;53294;47.912;13.526;2024-02-28T10:06:26;9.45;;;4.07;;
66478;SDS011;53294;47.912;13.526;2024-02-28T10:08:52;11.05;;;3.55;;
66478;SDS011;53294;47.912;13.526;2024-02-28T10:13:50;6.45;;;3.33;;
66478;SDS011;53294;47.912;13.526;2024-02-28T10:16:18;8.13;;;4.22;;
66478;SDS011;53294;47.912;13.526;2024-02-28T10:18:45;7.80;;;3.55;;
66478;SDS011;53294;47.912;13.526;2024-02-28T10:23:41;11.77;;;4.30;;
66478;SDS011;53294;47.912;13.526;2024-02-28T10:26:11;12.55;;;4.85;;
66478;SDS011;53294;47.912;13.526;2024-02-28T10:28:39;13.05;;;5.43;;
66478;SDS011;53294;47.912;13.526;2024-02-28T10:31:07;9.38;;;4.65;;
66478;SDS011;53294;47.912;13.526;2024-02-28T10:33:34;8.45;;;3.92;;
66478;SDS011;53294;47.912;13.526;2024-02-28T10:36:03;12.55;;;4.07;;
66478;SDS011;53294;47.912;13.526;2024-02-28T10:38:31;9.77;;;4.05;;
66478;SDS011;53294;47.912;13.526;2024-02-28T10:41:05;10.60;;;4.38;;
66478;SDS011;53294;47.912;13.526;2024-02-28T10:43:36;11.52;;;4.38;;
66478;SDS011;53294;47.912;13.526;2024-02-28T10:46:05;11.75;;;4.40;;
66478;SDS011;53294;47.912;13.526;2024-02-28T10:48:55;9.02;;;3.80;;
66478;SDS011;53294;47.912;13.526;2024-02-28T10:51:24;12.18;;;4.88;;
66478;SDS011;53294;47.912;13.526;2024-02-28T10:54:07;9.73;;;4.35;;
66478;SDS011;53294;47.912;13.526;2024-02-28T10:56:39;13.65;;;5.20;;
66478;SDS011;53294;47.912;13.526;2024-02-28T10:59:09;12.95;;;4.45;;
66478;SDS011;53294;47.912;13.526;2024-02-28T11:01:41;10.93;;;4.65;;
66478;SDS011;53294;47.912;13.526;2024-02-28T11:04:11;12.50;;;4.47;;
66478;SDS011;53294;47.912;13.526;2024-02-28T11:06:49;12.88;;;5.28;;
66478;SDS011;53294;47.912;13.526;2024-02-28T11:09:28;15.77;;;5.57;;
66478;SDS011;53294;47.912;13.526;2024-02-28T11:14:23;13.05;;;4.47;;
66478;SDS011;53294;47.912;13.526;2024-02-28T11:17:03;12.77;;;5.05;;
66478;SDS011;53294;47.912;13.526;2024-02-28T11:19:32;11.60;;;4.82;;
66478;SDS011;53294;47.912;13.526;2024-02-28T11:22:02;19.48;;;6.60;;
66478;SDS011;53294;47.912;13.526;2024-02-28T11:24:34;12.73;;;4.95;;
66478;SDS011;53294;47.912;13.526;2024-02-28T11:27:04;18.60;;;6.72;;
66478;SDS011;53294;47.912;13.526;2024-02-28T11:29:33;15.05;;;5.35;;
66478;SDS011;53294;47.912;13.526;2024-02-28T11:31:59;16.40;;;5.30;;
66478;SDS011;53294;47.912;13.526;2024-02-28T11:34:26;16.67;;;5.88;;
66478;SDS011;53294;47.912;13.526;2024-02-28T11:36:53;15.68;;;5.40;;
66478;SDS011;53294;47.912;13.526;2024-02-28T11:39:22;14.25;;;6.05;;
66478;SDS011;53294;47.912;13.526;2024-02-28T11:41:52;14.70;;;5.45;;
66478;SDS011;53294;47.912;13.526;2024-02-28T11:44:19;15.57;;;5.47;;
66478;SDS011;53294;47.912;13.526;2024-02-28T11:46:46;20.30;;;6.85;;
66478;SDS011;53294;47.912;13.526;2024-02-28T11:49:14;15.88;;;5.70;;
66478;SDS011;53294;47.912;13.526;2024-02-28T11:51:42;23.30;;;7.95;;
66478;SDS011;53294;47.912;13.526;2024-02-28T11:54:10;14.98;;;5.88;;
66478;SDS011;53294;47.912;13.526;2024-02-28T11:56:38;13.73;;;6.32;;
66478;SDS011;53294;47.912;13.526;2024-02-28T11:59:05;13.70;;;5.50;;
66478;SDS011;53294;47.912;13.526;2024-02-28T12:01:36;16.10;;;6.35;;
66478;SDS011;53294;47.912;13.526;2024-02-28T12:04:07;16.50;;;6.32;;
66478;SDS011;53294;47.912;13.526;2024-02-28T12:06:35;18.73;;;6.25;;
66478;SDS011;53294;47.912;13.526;2024-02-28T12:09:04;17.33;;;6.65;;
66478;SDS011;53294;47.912;13.526;2024-02-28T12:11:33;17.75;;;7.63;;
66478;SDS011;53294;47.912;13.526;2024-02-28T12:14:07;13.98;;;5.68;;
66478;SDS011;53294;47.912;13.526;2024-02-28T12:16:38;15.63;;;6.43;;
66478;SDS011;53294;47.912;13.526;2024-02-28T12:19:09;18.40;;;6.25;;
66478;SDS011;53294;47.912;13.526;2024-02-28T12:21:37;14.68;;;6.05;;
66478;SDS011;53294;47.912;13.526;2024-02-28T12:24:08;20.58;;;6.30;;
66478;SDS011;53294;47.912;13.526;2024-02-28T12:26:36;22.02;;;6.78;;
66478;SDS011;53294;47.912;13.526;2024-02-28T12:29:04;17.77;;;6.72;;
66478;SDS011;53294;47.912;13.526;2024-02-28T12:33:58;15.65;;;5.85;;
66478;SDS011;53294;47.912;13.526;2024-02-28T12:36:25;16.20;;;6.45;;
66478;SDS011;53294;47.912;13.526;2024-02-28T12:38:53;15.32;;;6.05;;
66478;SDS011;53294;47.912;13.526;2024-02-28T12:41:20;17.20;;;5.53;;
66478;SDS011;53294;47.912;13.526;2024-02-28T12:43:47;16.73;;;5.32;;
66478;SDS011;53294;47.912;13.526;2024-02-28T12:46:13;17.67;;;6.43;;
66478;SDS011;53294;47.912;13.526;2024-02-28T12:48:40;16.55;;;6.75;;
66478;SDS011;53294;47.912;13.526;2024-02-28T12:51:08;18.75;;;7.18;;
66478;SDS011;53294;47.912;13.526;2024-02-28T12:53:37;18.75;;;6.40;;
66478;SDS011;53294;47.912;13.526;2024-02-28T12:56:04;20.90;;;6.28;;
66478;SDS011;53294;47.912;13.526;2024-02-28T12:58:31;18.27;;;6.93;;
66478;SDS011;53294;47.912;13.526;2024-02-28T13:00:58;18.27;;;6.55;;
66478;SDS011;53294;47.912;13.526;2024-02-28T13:03:25;24.17;;;7.07;;
66478;SDS011;53294;47.912;13.526;2024-02-28T13:05:52;13.02;;;5.68;;
66478;SDS011;53294;47.912;13.526;2024-02-28T13:08:18;22.15;;;5.78;;
66478;SDS011;53294;47.912;13.526;2024-02-28T13:10:45;20.25;;;6.53;;
66478;SDS011;53294;47.912;13.526;2024-02-28T13:13:12;20.05;;;7.13;;
66478;SDS011;53294;47.912;13.526;2024-02-28T13:15:40;17.33;;;6.40;;
66478;SDS011;53294;47.912;13.526;2024-02-28T13:18:07;18.63;;;7.65;;
66478;SDS011;53294;47.912;13.526;2024-02-28T13:20:35;16.48;;;6.82;;
66478;SDS011;53294;47.912;13.526;2024-02-28T13:23:04;18.73;;;6.32;;
66478;SDS011;53294;47.912;13.526;2024-02-28T13:27:57;17.60;;;6.78;;
66478;SDS011;53294;47.912;13.526;2024-02-28T13:30:25;24.80;;;7.53;;
66478;SDS011;53294;47.912;13.526;2024-02-28T13:32:52;19.67;;;7.53;;
66478;SDS011;53294;47.912;13.526;2024-02-28T13:35:18;22.13;;;7.38;;
66478;SDS011;53294;47.912;13.526;2024-02-28T13:37:45;19.05;;;5.95;;
66478;SDS011;53294;47.912;13.526;2024-02-28T13:40:12;18.83;;;7.28;;
66478;SDS011;53294;47.912;13.526;2024-02-28T13:42:39;17.88;;;7.53;;
66478;SDS011;53294;47.912;13.526;2024-02-28T13:45:07;12.18;;;5.70;;
66478;SDS011;53294;47.912;13.526;2024-02-28T13:47:35;21.38;;;6.70;;
66478;SDS011;53294;47.912;13.526;2024-02-28T13:50:02;23.17;;;7.85;;
66478;SDS011;53294;47.912;13.526;2024-02-28T13:52:29;18.20;;;6.80;;
66478;SDS011;53294;47.912;13.526;2024-02-28T13:54:56;15.68;;;6.15;;
66478;SDS011;53294;47.912;13.526;2024-02-28T13:57:23;16.85;;;6.20;;
66478;SDS011;53294;47.912;13.526;2024-02-28T13:59:49;20.30;;;7.80;;
66478;SDS011;53294;47.912;13.526;2024-02-28T14:02:22;17.52;;;7.25;;
66478;SDS011;53294;47.912;13.526;2024-02-28T14:04:53;19.80;;;7.07;;
66478;SDS011;53294;47.912;13.526;2024-02-28T14:07:21;23.67;;;7.43;;
66478;SDS011;53294;47.912;13.526;2024-02-28T14:09:48;14.10;;;5.63;;
66478;SDS011;53294;47.912;13.526;2024-02-28T14:12:15;18.73;;;6.35;;
66478;SDS011;53294;47.912;13.526;2024-02-28T14:14:42;15.43;;;5.68;;
66478;SDS011;53294;47.912;13.526;2024-02-28T14:17:08;16.88;;;5.75;;
66478;SDS011;53294;47.912;13.526;2024-02-28T14:19:35;17.80;;;6.10;;
66478;SDS011;53294;47.912;13.526;2024-02-28T14:22:02;19.00;;;6.45;;
66478;SDS011;53294;47.912;13.526;2024-02-28T14:24:30;15.85;;;6.32;;
66478;SDS011;53294;47.912;13.526;2024-02-28T14:26:57;18.15;;;6.70;;
66478;SDS011;53294;47.912;13.526;2024-02-28T14:29:25;17.02;;;5.50;;
66478;SDS011;53294;47.912;13.526;2024-02-28T14:31:52;14.73;;;6.05;;
66478;SDS011;53294;47.912;13.526;2024-02-28T14:34:19;15.13;;;5.15;;
66478;SDS011;53294;47.912;13.526;2024-02-28T14:36:47;20.20;;;7.70;;
66478;SDS011;53294;47.912;13.526;2024-02-28T14:39:15;12.50;;;4.78;;
66478;SDS011;53294;47.912;13.526;2024-02-28T14:41:42;19.83;;;7.53;;
66478;SDS011;53294;47.912;13.526;2024-02-28T14:44:13;20.38;;;6.35;;
66478;SDS011;53294;47.912;13.526;2024-02-28T14:46:41;21.08;;;7.68;;
66478;SDS011;53294;47.912;13.526;2024-02-28T14:51:36;14.75;;;6.43;;
66478;SDS011;53294;47.912;13.526;2024-02-28T14:54:05;15.77;;;6.13;;
66478;SDS011;53294;47.912;13.526;2024-02-28T14:58:59;19.05;;;7.10;;
66478;SDS011;53294;47.912;13.526;2024-02-28T15:01:26;19.08;;;6.90;;